WetterOnline ( https://www.wetteronline.de )

Wetter aktuell Traunstein

Aktuelles Wetter: Chieming (553m)

6-stündlich | Neueste Meldungen
Ortszeit Temperatur Wetter
Mi, 07.12. 1:00 2.7° C bewölkt
Di, 06.12. 19:00 3.8° C bedeckt
Di, 06.12. 13:00 5.2° C leicht bewölkt
Di, 06.12. 7:00 1.1° C bedeckt
Di, 06.12. 1:00 1.7° C bewölkt
Mo, 05.12. 19:00 1.7° C leichter Regen
Mo, 05.12. 13:00 3.0° C Sprühregen
Mo, 05.12. 7:00 0.8° C Nebel
Ortszeit Temperatur Wetter
Mi, 07.12. 1:00 2.7° C bewölkt
Mi, 07.12. 0:30 2.7° C bewölkt
Mi, 07.12. 0:20 2.7° C bewölkt
Mi, 07.12. 0:10 2.7° C bewölkt
Mi, 07.12. 0:00 2.7° C bewölkt
Di, 06.12. 23:50 2.7° C bewölkt
Di, 06.12. 23:30 2.8° C bedeckt
Di, 06.12. 23:00 2.8° C bewölkt
Di, 06.12. 22:30 2.9° C bedeckt
Di, 06.12. 22:00 3.2° C bedeckt
Ortszeit Relative Feuchte Sichtweite
Mi, 07.12. 1:00 86% 26 km
Di, 06.12. 19:00 81% 45 km
Di, 06.12. 13:00 64% 65 km
Di, 06.12. 7:00 95% 30 km
Di, 06.12. 1:00 94% 50 km
Mo, 05.12. 19:00 96% 21 km
Mo, 05.12. 13:00 95% 5.0 km
Mo, 05.12. 7:00 97% 13 km
Ortszeit Relative Feuchte Sichtweite
Mi, 07.12. 1:00 86% 26 km
Mi, 07.12. 0:30 86% 30 km
Mi, 07.12. 0:20 86% -
Mi, 07.12. 0:10 85% -
Mi, 07.12. 0:00 84% 30 km
Di, 06.12. 23:50 84% -
Di, 06.12. 23:30 85% 35 km
Di, 06.12. 23:00 83% 40 km
Di, 06.12. 22:30 83% 40 km
Di, 06.12. 22:00 81% 45 km
Ortszeit Niederschlagsmenge Niederschlagsart
Mi, 07.12. 1:00 0.0 l/m2 in 6 Std. -
Di, 06.12. 19:00 0.0 l/m2 in 12 Std. -
Di, 06.12. 13:00 0.0 l/m2 in 6 Std. -
Di, 06.12. 7:00 3 l/m2 in 12 Std. Regen
Di, 06.12. 1:00 3 l/m2 in 6 Std. Regen
Mo, 05.12. 19:00 2 l/m2 in 12 Std. Regen
Mo, 05.12. 13:00 0.1 l/m2 in 6 Std. Sprühregen
Mo, 05.12. 7:00 0.1 l/m2 in 12 Std. Sprühregen
Ortszeit Niederschlagsmenge Niederschlagsart
Mi, 07.12. 1:00 keine Meldung -
Mi, 07.12. 0:30 0.0 l/m2 in 30 Min -
Mi, 07.12. 0:20 keine Meldung -
Mi, 07.12. 0:10 keine Meldung -
Mi, 07.12. 0:00 0.0 l/m2 in 1 Std. -
Di, 06.12. 23:50 keine Meldung -
Di, 06.12. 23:30 0.0 l/m2 in 30 Min -
Di, 06.12. 23:00 0.0 l/m2 in 1 Std. -
Di, 06.12. 22:30 0.0 l/m2 in 30 Min -
Di, 06.12. 22:00 0.0 l/m2 in 1 Std. -
Ortszeit Stärke Spitze Richtung
km/h Bft. km/h Grad Sektor
Mi, 07.12. 1:00 18 3 29 270° W
Di, 06.12. 19:00 11 2 22 250° W
Di, 06.12. 13:00 9 2 20 220° SW
Di, 06.12. 7:00 7 2 32 190° S
Di, 06.12. 1:00 4 1 29 270° W
Mo, 05.12. 19:00 19 3 31 260° W
Mo, 05.12. 13:00 7 2 18 190° S
Mo, 05.12. 7:00 13 3 30 260° W
Ortszeit Stärke Spitze Richtung
km/h Bft. km/h Grad Sektor
Mi, 07.12. 1:00 18 3 29 270° W
Mi, 07.12. 0:30 14 3 25 270° W
Mi, 07.12. 0:20 14 3 - 270° W
Mi, 07.12. 0:10 14 3 - 270° W
Mi, 07.12. 0:00 18 3 25 270° W
Di, 06.12. 23:50 18 3 - 270° W
Di, 06.12. 23:30 19 3 26 280° W
Di, 06.12. 23:00 17 3 22 270° W
Di, 06.12. 22:30 13 3 22 270° W
Di, 06.12. 22:00 18 3 25 280° W
Ortszeit Untergrenze Bedeckung Gattung
total tief tief mittel hoch
Mi, 07.12. 1:00 360 m 7/8 7/8 - - -
Di, 06.12. 19:00 1410 m 8/8 8/8 - - -
Di, 06.12. 13:00 1500 m 3/8 3/8 - - -
Di, 06.12. 7:00 780 m 8/8 8/8 - - -
Di, 06.12. 1:00 960 m 7/8 7/8 - - -
Mo, 05.12. 19:00 150 m 7/8 7/8 - - -
Mo, 05.12. 13:00 300 m 8/8 8/8 - - -
Mo, 05.12. 7:00 90 m 8/8 8/8 - - -
Ortszeit Bedeckungsgrad in Achtel und Wolkenuntergrenze
Mi, 07.12. 1:00 6(360m) 7(480m)
Mi, 07.12. 0:30 7(420m)
Mi, 07.12. 0:20 7(420m)
Mi, 07.12. 0:10 7
Mi, 07.12. 0:00 7(450m) 7(570m)
Di, 06.12. 23:50 7(450m) 7(570m)
Di, 06.12. 23:30 8(480m)
Di, 06.12. 23:00 7(450m) 7(1800m)
Di, 06.12. 22:30 4(420m) 7(1440m) 8(1800m)
Di, 06.12. 22:00 5(570m) 8(1440m) 8(1800m)
Ortszeit Luftdruck NN (hPa) Tendenz (hPa in 3 Std.)
Mi, 07.12. 1:00 1018 + 0,1
Di, 06.12. 19:00 1018 + 0,1
Di, 06.12. 13:00 1018 - 0,9
Di, 06.12. 7:00 1020 - 0,5
Di, 06.12. 1:00 1021 - 0,6
Mo, 05.12. 19:00 1021 + 0,8
Mo, 05.12. 13:00 1021 + 0,1
Mo, 05.12. 7:00 1020 + 2,2
Ortszeit Luftdruck NN (hPa) Tendenz (hPa in 3 Std.)
Mi, 07.12. 1:00 1018 + 0,1
Mi, 07.12. 0:30 1018 + 0,2
Mi, 07.12. 0:20 1018 keine Meldung
Mi, 07.12. 0:10 1018 keine Meldung
Mi, 07.12. 0:00 1018 + 0,1
Di, 06.12. 23:50 1018 keine Meldung
Di, 06.12. 23:30 1018 + 0,1
Di, 06.12. 23:00 1018 + 0,1
Di, 06.12. 22:30 1018 0,0
Di, 06.12. 22:00 1018 + 0,2
Ortszeit Schneehöhe (cm)
Mi, 07.12. 1:00 0
Di, 06.12. 19:00 0
Di, 06.12. 13:00 0
Di, 06.12. 7:00 0
Di, 06.12. 1:00 0
Mo, 05.12. 19:00 0
Mo, 05.12. 13:00 0
Mo, 05.12. 7:00 0
Ortszeit Schneehöhe (cm)
Mi, 07.12. 1:00 0
Mi, 07.12. 0:30 0
Mi, 07.12. 0:20 0
Mi, 07.12. 0:10 0
Mi, 07.12. 0:00 0
Di, 06.12. 23:50 0
Di, 06.12. 23:30 0
Di, 06.12. 23:00 0
Di, 06.12. 22:30 0
Di, 06.12. 22:00 0
Link zu dieser Seite / Seite empfehlen

Das Wetter in ...